sensor_id;sensor_type;location;lat;lon;timestamp;pressure;altitude;pressure_sealevel;temperature;humidity
33404;BME280;19751;40.274;18.268;2024-03-07T00:01:28;101240.47;;;11.87;82.59
33404;BME280;19751;40.274;18.268;2024-03-07T00:03:53;101242.84;;;11.82;84.25
33404;BME280;19751;40.274;18.268;2024-03-07T00:06:19;101237.16;;;11.77;85.33
33404;BME280;19751;40.274;18.268;2024-03-07T00:08:46;101244.16;;;11.71;86.48
33404;BME280;19751;40.274;18.268;2024-03-07T00:11:11;101242.00;;;11.66;87.39
33404;BME280;19751;40.274;18.268;2024-03-07T00:13:37;101254.19;;;11.62;87.89
33404;BME280;19751;40.274;18.268;2024-03-07T00:16:02;101260.97;;;11.58;89.03
33404;BME280;19751;40.274;18.268;2024-03-07T00:18:29;101260.13;;;11.58;89.71
33404;BME280;19751;40.274;18.268;2024-03-07T00:20:54;101253.03;;;11.57;90.14
33404;BME280;19751;40.274;18.268;2024-03-07T00:23:21;101255.09;;;11.55;90.91
33404;BME280;19751;40.274;18.268;2024-03-07T00:25:46;101248.41;;;11.51;91.20
33404;BME280;19751;40.274;18.268;2024-03-07T00:28:15;101253.66;;;11.44;91.42
33404;BME280;19751;40.274;18.268;2024-03-07T00:30:43;101245.78;;;11.42;92.04
33404;BME280;19751;40.274;18.268;2024-03-07T00:33:11;101246.13;;;11.39;93.24
33404;BME280;19751;40.274;18.268;2024-03-07T00:35:36;101241.13;;;11.36;93.90
33404;BME280;19751;40.274;18.268;2024-03-07T00:38:02;101239.81;;;11.32;94.26
33404;BME280;19751;40.274;18.268;2024-03-07T00:40:28;101243.78;;;11.22;95.45
33404;BME280;19751;40.274;18.268;2024-03-07T00:42:53;101240.78;;;11.16;96.70
33404;BME280;19751;40.274;18.268;2024-03-07T00:45:19;101239.00;;;11.09;97.95
33404;BME280;19751;40.274;18.268;2024-03-07T00:47:44;101239.34;;;11.06;98.38
33404;BME280;19751;40.274;18.268;2024-03-07T00:50:10;101238.31;;;11.07;98.65
33404;BME280;19751;40.274;18.268;2024-03-07T00:52:35;101230.59;;;11.04;99.07
33404;BME280;19751;40.274;18.268;2024-03-07T00:55:02;101228.56;;;11.06;99.48
33404;BME280;19751;40.274;18.268;2024-03-07T00:57:27;101223.00;;;11.07;99.69
33404;BME280;19751;40.274;18.268;2024-03-07T00:59:53;101225.69;;;11.07;100.00
33404;BME280;19751;40.274;18.268;2024-03-07T01:02:18;101222.31;;;11.05;100.00
33404;BME280;19751;40.274;18.268;2024-03-07T01:04:44;101226.41;;;11.01;100.00
33404;BME280;19751;40.274;18.268;2024-03-07T01:07:10;101231.31;;;10.98;100.00
33404;BME280;19751;40.274;18.268;2024-03-07T01:09:36;101226.75;;;10.98;100.00
33404;BME280;19751;40.274;18.268;2024-03-07T01:12:02;101220.19;;;11.01;100.00
33404;BME280;19751;40.274;18.268;2024-03-07T01:14:31;101221.00;;;11.01;100.00
33404;BME280;19751;40.274;18.268;2024-03-07T01:16:57;101217.78;;;11.06;100.00
33404;BME280;19751;40.274;18.268;2024-03-07T01:19:22;101223.44;;;11.11;100.00
33404;BME280;19751;40.274;18.268;2024-03-07T01:21:49;101224.28;;;11.11;100.00
33404;BME280;19751;40.274;18.268;2024-03-07T01:24:15;101214.81;;;11.15;100.00
33404;BME280;19751;40.274;18.268;2024-03-07T01:26:43;101220.13;;;11.24;100.00
33404;BME280;19751;40.274;18.268;2024-03-07T01:29:09;101212.84;;;11.32;100.00
33404;BME280;19751;40.274;18.268;2024-03-07T01:31:35;101214.78;;;11.38;100.00
33404;BME280;19751;40.274;18.268;2024-03-07T01:34:00;101214.16;;;11.36;100.00
33404;BME280;19751;40.274;18.268;2024-03-07T01:36:26;101226.13;;;11.34;100.00
33404;BME280;19751;40.274;18.268;2024-03-07T01:38:52;101232.38;;;11.34;100.00
33404;BME280;19751;40.274;18.268;2024-03-07T01:41:17;101223.91;;;11.37;100.00
33404;BME280;19751;40.274;18.268;2024-03-07T01:43:44;101222.41;;;11.35;100.00
33404;BME280;19751;40.274;18.268;2024-03-07T01:46:10;101217.22;;;11.33;100.00
33404;BME280;19751;40.274;18.268;2024-03-07T01:48:35;101216.19;;;11.34;100.00
33404;BME280;19751;40.274;18.268;2024-03-07T01:51:03;101205.88;;;11.38;100.00
33404;BME280;19751;40.274;18.268;2024-03-07T01:53:32;101203.81;;;11.40;100.00
33404;BME280;19751;40.274;18.268;2024-03-07T01:55:59;101208.56;;;11.38;100.00
33404;BME280;19751;40.274;18.268;2024-03-07T01:58:29;101209.03;;;11.41;100.00
33404;BME280;19751;40.274;18.268;2024-03-07T02:00:55;101209.69;;;11.43;100.00
33404;BME280;19751;40.274;18.268;2024-03-07T02:03:20;101209.97;;;11.49;100.00
33404;BME280;19751;40.274;18.268;2024-03-07T02:05:46;101210.16;;;11.47;100.00
33404;BME280;19751;40.274;18.268;2024-03-07T02:08:11;101212.56;;;11.42;100.00
33404;BME280;19751;40.274;18.268;2024-03-07T02:10:36;101219.53;;;11.36;100.00
33404;BME280;19751;40.274;18.268;2024-03-07T02:13:03;101210.78;;;11.34;100.00
33404;BME280;19751;40.274;18.268;2024-03-07T02:15:28;101212.38;;;11.29;100.00
33404;BME280;19751;40.274;18.268;2024-03-07T02:17:54;101209.34;;;11.24;100.00
33404;BME280;19751;40.274;18.268;2024-03-07T02:20:20;101204.09;;;11.30;100.00
33404;BME280;19751;40.274;18.268;2024-03-07T02:22:46;101196.28;;;11.35;100.00
33404;BME280;19751;40.274;18.268;2024-03-07T02:25:11;101198.59;;;11.38;100.00
33404;BME280;19751;40.274;18.268;2024-03-07T02:27:38;101196.75;;;11.39;100.00
33404;BME280;19751;40.274;18.268;2024-03-07T02:30:04;101183.47;;;11.37;100.00
33404;BME280;19751;40.274;18.268;2024-03-07T02:32:31;101186.44;;;11.42;100.00
33404;BME280;19751;40.274;18.268;2024-03-07T02:34:56;101184.00;;;11.48;100.00
33404;BME280;19751;40.274;18.268;2024-03-07T02:37:22;101178.72;;;11.54;100.00
33404;BME280;19751;40.274;18.268;2024-03-07T02:39:48;101189.59;;;11.61;100.00
33404;BME280;19751;40.274;18.268;2024-03-07T02:42:13;101179.28;;;11.64;100.00
33404;BME280;19751;40.274;18.268;2024-03-07T02:44:39;101182.16;;;11.63;100.00
33404;BME280;19751;40.274;18.268;2024-03-07T02:47:05;101173.25;;;11.62;100.00
33404;BME280;19751;40.274;18.268;2024-03-07T02:49:30;101168.94;;;11.68;100.00
33404;BME280;19751;40.274;18.268;2024-03-07T02:51:56;101184.59;;;11.73;100.00
33404;BME280;19751;40.274;18.268;2024-03-07T02:54:21;101176.31;;;11.74;100.00
33404;BME280;19751;40.274;18.268;2024-03-07T02:56:47;101177.16;;;11.75;100.00
33404;BME280;19751;40.274;18.268;2024-03-07T02:59:12;101175.28;;;11.75;100.00
33404;BME280;19751;40.274;18.268;2024-03-07T03:01:38;101178.00;;;11.75;100.00
33404;BME280;19751;40.274;18.268;2024-03-07T03:04:04;101176.69;;;11.71;100.00
33404;BME280;19751;40.274;18.268;2024-03-07T03:06:29;101173.88;;;11.64;100.00
33404;BME280;19751;40.274;18.268;2024-03-07T03:08:55;101160.59;;;11.63;100.00
33404;BME280;19751;40.274;18.268;2024-03-07T03:11:20;101159.28;;;11.59;100.00
33404;BME280;19751;40.274;18.268;2024-03-07T03:13:46;101164.88;;;11.57;100.00
33404;BME280;19751;40.274;18.268;2024-03-07T03:16:14;101160.69;;;11.55;100.00
33404;BME280;19751;40.274;18.268;2024-03-07T03:18:39;101155.28;;;11.55;100.00
33404;BME280;19751;40.274;18.268;2024-03-07T03:21:05;101160.69;;;11.55;100.00
33404;BME280;19751;40.274;18.268;2024-03-07T03:23:30;101150.91;;;11.54;100.00
33404;BME280;19751;40.274;18.268;2024-03-07T03:25:56;101149.22;;;11.53;100.00
33404;BME280;19751;40.274;18.268;2024-03-07T03:28:22;101153.97;;;11.51;100.00
33404;BME280;19751;40.274;18.268;2024-03-07T03:30:49;101142.53;;;11.49;100.00
33404;BME280;19751;40.274;18.268;2024-03-07T03:33:15;101153.31;;;11.49;100.00
33404;BME280;19751;40.274;18.268;2024-03-07T03:35:41;101143.19;;;11.51;100.00
33404;BME280;19751;40.274;18.268;2024-03-07T03:38:07;101136.97;;;11.50;100.00
33404;BME280;19751;40.274;18.268;2024-03-07T03:40:33;101140.50;;;11.51;100.00
33404;BME280;19751;40.274;18.268;2024-03-07T03:43:00;101140.00;;;11.47;100.00
33404;BME280;19751;40.274;18.268;2024-03-07T03:45:26;101146.81;;;11.43;100.00
33404;BME280;19751;40.274;18.268;2024-03-07T03:47:52;101150.25;;;11.37;100.00
33404;BME280;19751;40.274;18.268;2024-03-07T03:50:18;101145.78;;;11.29;100.00
33404;BME280;19751;40.274;18.268;2024-03-07T03:52:44;101140.38;;;11.29;100.00
33404;BME280;19751;40.274;18.268;2024-03-07T03:55:10;101144.38;;;11.33;100.00
33404;BME280;19751;40.274;18.268;2024-03-07T03:57:39;101146.25;;;11.33;100.00
33404;BME280;19751;40.274;18.268;2024-03-07T04:00:05;101148.75;;;11.34;100.00
33404;BME280;19751;40.274;18.268;2024-03-07T04:02:45;101149.69;;;11.41;100.00
33404;BME280;19751;40.274;18.268;2024-03-07T04:05:14;101149.63;;;11.50;100.00
33404;BME280;19751;40.274;18.268;2024-03-07T04:07:40;101148.84;;;11.56;100.00
33404;BME280;19751;40.274;18.268;2024-03-07T04:10:10;101139.63;;;11.65;100.00
33404;BME280;19751;40.274;18.268;2024-03-07T04:12:37;101145.34;;;11.70;100.00
33404;BME280;19751;40.274;18.268;2024-03-07T04:15:08;101142.06;;;11.75;100.00
33404;BME280;19751;40.274;18.268;2024-03-07T04:17:34;101144.56;;;11.76;100.00
33404;BME280;19751;40.274;18.268;2024-03-07T04:20:00;101134.59;;;11.77;100.00
33404;BME280;19751;40.274;18.268;2024-03-07T04:22:27;101128.38;;;11.76;100.00
33404;BME280;19751;40.274;18.268;2024-03-07T04:24:52;101129.97;;;11.70;100.00
33404;BME280;19751;40.274;18.268;2024-03-07T04:27:21;101135.94;;;11.66;100.00
33404;BME280;19751;40.274;18.268;2024-03-07T04:29:47;101134.06;;;11.66;100.00
33404;BME280;19751;40.274;18.268;2024-03-07T04:32:13;101141.81;;;11.69;100.00
33404;BME280;19751;40.274;18.268;2024-03-07T04:34:39;101139.63;;;11.65;100.00
33404;BME280;19751;40.274;18.268;2024-03-07T04:37:05;101137.97;;;11.64;100.00
33404;BME280;19751;40.274;18.268;2024-03-07T04:39:30;101141.34;;;11.66;100.00
33404;BME280;19751;40.274;18.268;2024-03-07T04:42:00;101151.09;;;11.67;100.00
33404;BME280;19751;40.274;18.268;2024-03-07T04:44:30;101142.34;;;11.65;100.00
33404;BME280;19751;40.274;18.268;2024-03-07T04:46:56;101144.59;;;11.61;100.00
33404;BME280;19751;40.274;18.268;2024-03-07T04:49:23;101138.72;;;11.58;100.00
33404;BME280;19751;40.274;18.268;2024-03-07T04:51:52;101140.97;;;11.54;100.00
33404;BME280;19751;40.274;18.268;2024-03-07T04:54:19;101138.91;;;11.56;100.00
33404;BME280;19751;40.274;18.268;2024-03-07T04:56:49;101127.75;;;11.59;100.00
33404;BME280;19751;40.274;18.268;2024-03-07T04:59:15;101136.03;;;11.58;100.00
33404;BME280;19751;40.274;18.268;2024-03-07T05:01:41;101138.06;;;11.56;100.00
33404;BME280;19751;40.274;18.268;2024-03-07T05:04:07;101134.81;;;11.60;100.00
33404;BME280;19751;40.274;18.268;2024-03-07T05:06:33;101140.66;;;11.64;100.00
33404;BME280;19751;40.274;18.268;2024-03-07T05:09:00;101137.59;;;11.67;100.00
33404;BME280;19751;40.274;18.268;2024-03-07T05:11:27;101151.09;;;11.67;100.00
33404;BME280;19751;40.274;18.268;2024-03-07T05:13:53;101153.13;;;11.65;100.00
33404;BME280;19751;40.274;18.268;2024-03-07T05:16:18;101146.06;;;11.64;100.00
33404;BME280;19751;40.274;18.268;2024-03-07T05:18:45;101153.31;;;11.63;100.00
33404;BME280;19751;40.274;18.268;2024-03-07T05:21:11;101152.50;;;11.63;100.00
33404;BME280;19751;40.274;18.268;2024-03-07T05:23:55;101150.63;;;11.63;100.00
33404;BME280;19751;40.274;18.268;2024-03-07T05:26:20;101151.00;;;11.60;100.00
33404;BME280;19751;40.274;18.268;2024-03-07T05:28:46;101154.34;;;11.62;100.00
33404;BME280;19751;40.274;18.268;2024-03-07T05:31:11;101145.22;;;11.63;100.00
33404;BME280;19751;40.274;18.268;2024-03-07T05:33:38;101154.72;;;11.59;100.00
33404;BME280;19751;40.274;18.268;2024-03-07T05:36:04;101157.97;;;11.55;100.00
33404;BME280;19751;40.274;18.268;2024-03-07T05:38:41;101142.81;;;11.54;100.00
33404;BME280;19751;40.274;18.268;2024-03-07T05:41:11;101139.28;;;11.53;100.00
33404;BME280;19751;40.274;18.268;2024-03-07T05:43:40;101152.94;;;11.52;100.00
33404;BME280;19751;40.274;18.268;2024-03-07T05:46:06;101155.66;;;11.52;100.00
33404;BME280;19751;40.274;18.268;2024-03-07T05:48:34;101156.94;;;11.56;100.00
33404;BME280;19751;40.274;18.268;2024-03-07T05:51:00;101157.63;;;11.58;100.00
33404;BME280;19751;40.274;18.268;2024-03-07T05:53:26;101164.22;;;11.55;100.00
33404;BME280;19751;40.274;18.268;2024-03-07T05:55:51;101170.63;;;11.54;100.00
33404;BME280;19751;40.274;18.268;2024-03-07T05:58:17;101177.69;;;11.55;100.00
33404;BME280;19751;40.274;18.268;2024-03-07T06:00:46;101170.44;;;11.56;100.00
33404;BME280;19751;40.274;18.268;2024-03-07T06:03:18;101172.78;;;11.59;100.00
33404;BME280;19751;40.274;18.268;2024-03-07T06:05:47;101176.41;;;11.66;100.00
33404;BME280;19751;40.274;18.268;2024-03-07T06:08:17;101183.47;;;11.67;100.00
33404;BME280;19751;40.274;18.268;2024-03-07T06:10:45;101183.47;;;11.67;100.00
33404;BME280;19751;40.274;18.268;2024-03-07T06:13:15;101180.59;;;11.68;100.00
33404;BME280;19751;40.274;18.268;2024-03-07T06:15:45;101173.31;;;11.69;100.00
33404;BME280;19751;40.274;18.268;2024-03-07T06:18:12;101167.56;;;11.72;100.00
33404;BME280;19751;40.274;18.268;2024-03-07T06:20:39;101155.72;;;11.73;100.00
33404;BME280;19751;40.274;18.268;2024-03-07T06:23:06;101161.13;;;11.73;100.00
33404;BME280;19751;40.274;18.268;2024-03-07T06:25:34;101163.81;;;11.73;100.00
33404;BME280;19751;40.274;18.268;2024-03-07T06:28:12;101176.47;;;11.73;100.00
33404;BME280;19751;40.274;18.268;2024-03-07T06:30:39;101169.06;;;11.75;100.00
33404;BME280;19751;40.274;18.268;2024-03-07T06:33:06;101168.66;;;11.78;100.00
33404;BME280;19751;40.274;18.268;2024-03-07T06:35:32;101182.00;;;11.79;100.00
33404;BME280;19751;40.274;18.268;2024-03-07T06:37:57;101185.72;;;11.78;100.00
33404;BME280;19751;40.274;18.268;2024-03-07T06:40:23;101183.03;;;11.78;100.00
33404;BME280;19751;40.274;18.268;2024-03-07T06:42:48;101190.72;;;11.81;100.00
33404;BME280;19751;40.274;18.268;2024-03-07T06:45:14;101192.59;;;11.81;100.00
33404;BME280;19751;40.274;18.268;2024-03-07T06:47:41;101182.00;;;11.79;100.00
33404;BME280;19751;40.274;18.268;2024-03-07T06:50:07;101189.25;;;11.79;100.00
33404;BME280;19751;40.274;18.268;2024-03-07T06:52:35;101182.81;;;11.80;100.00
33404;BME280;19751;40.274;18.268;2024-03-07T06:55:01;101185.19;;;11.83;100.00
33404;BME280;19751;40.274;18.268;2024-03-07T06:57:29;101191.75;;;11.80;100.00
33404;BME280;19751;40.274;18.268;2024-03-07T06:59:55;101185.31;;;11.81;100.00
33404;BME280;19751;40.274;18.268;2024-03-07T07:02:21;101174.53;;;11.81;100.00
33404;BME280;19751;40.274;18.268;2024-03-07T07:04:46;101177.56;;;11.86;100.00
33404;BME280;19751;40.274;18.268;2024-03-07T07:07:13;101178.47;;;11.93;100.00
33404;BME280;19751;40.274;18.268;2024-03-07T07:09:40;101166.56;;;12.03;100.00
33404;BME280;19751;40.274;18.268;2024-03-07T07:12:06;101169.53;;;12.08;100.00
33404;BME280;19751;40.274;18.268;2024-03-07T07:14:31;101172.69;;;12.11;100.00
33404;BME280;19751;40.274;18.268;2024-03-07T07:16:57;101182.47;;;12.12;100.00
33404;BME280;19751;40.274;18.268;2024-03-07T07:19:24;101183.28;;;12.13;100.00
33404;BME280;19751;40.274;18.268;2024-03-07T07:21:50;101181.88;;;12.17;100.00
33404;BME280;19751;40.274;18.268;2024-03-07T07:24:19;101180.84;;;12.18;100.00
33404;BME280;19751;40.274;18.268;2024-03-07T07:26:47;101182.16;;;12.22;100.00
33404;BME280;19751;40.274;18.268;2024-03-07T07:29:12;101186.16;;;12.26;100.00
33404;BME280;19751;40.274;18.268;2024-03-07T07:31:38;101186.97;;;12.27;100.00
33404;BME280;19751;40.274;18.268;2024-03-07T07:34:03;101188.84;;;12.26;100.00
33404;BME280;19751;40.274;18.268;2024-03-07T07:36:30;101186.16;;;12.26;100.00
33404;BME280;19751;40.274;18.268;2024-03-07T07:38:55;101186.34;;;12.25;100.00
33404;BME280;19751;40.274;18.268;2024-03-07T07:41:21;101189.69;;;12.27;100.00
33404;BME280;19751;40.274;18.268;2024-03-07T07:43:46;101189.31;;;12.30;100.00
33404;BME280;19751;40.274;18.268;2024-03-07T07:46:13;101196.22;;;12.32;100.00
33404;BME280;19751;40.274;18.268;2024-03-07T07:48:38;101191.44;;;12.34;100.00
33404;BME280;19751;40.274;18.268;2024-03-07T07:51:04;101195.25;;;12.40;100.00
33404;BME280;19751;40.274;18.268;2024-03-07T07:53:30;101189.28;;;12.44;100.00
33404;BME280;19751;40.274;18.268;2024-03-07T07:55:56;101190.56;;;12.49;100.00
33404;BME280;19751;40.274;18.268;2024-03-07T07:58:21;101191.00;;;12.52;100.00
33404;BME280;19751;40.274;18.268;2024-03-07T08:00:47;101188.75;;;12.56;100.00
33404;BME280;19751;40.274;18.268;2024-03-07T08:03:14;101181.31;;;12.58;100.00
33404;BME280;19751;40.274;18.268;2024-03-07T08:05:43;101186.78;;;12.64;100.00
33404;BME280;19751;40.274;18.268;2024-03-07T08:08:10;101187.22;;;12.68;100.00
33404;BME280;19751;40.274;18.268;2024-03-07T08:10:39;101191.41;;;12.71;100.00
33404;BME280;19751;40.274;18.268;2024-03-07T08:13:06;101188.72;;;12.71;100.00
33404;BME280;19751;40.274;18.268;2024-03-07T08:15:32;101189.56;;;12.71;100.00
33404;BME280;19751;40.274;18.268;2024-03-07T08:17:58;101179.19;;;12.75;100.00
33404;BME280;19751;40.274;18.268;2024-03-07T08:20:25;101184.41;;;12.76;100.00
33404;BME280;19751;40.274;18.268;2024-03-07T08:22:51;101185.69;;;12.80;100.00
33404;BME280;19751;40.274;18.268;2024-03-07T08:25:19;101182.22;;;12.86;100.00
33404;BME280;19751;40.274;18.268;2024-03-07T08:27:47;101176.56;;;13.03;100.00
33404;BME280;19751;40.274;18.268;2024-03-07T08:30:13;101184.78;;;13.16;100.00
33404;BME280;19751;40.274;18.268;2024-03-07T08:32:43;101183.84;;;13.24;100.00
33404;BME280;19751;40.274;18.268;2024-03-07T08:35:09;101176.41;;;13.32;100.00
33404;BME280;19751;40.274;18.268;2024-03-07T08:40:03;101180.84;;;13.40;100.00
33404;BME280;19751;40.274;18.268;2024-03-07T08:42:36;101185.66;;;13.45;100.00
33404;BME280;19751;40.274;18.268;2024-03-07T08:45:03;101172.34;;;13.50;100.00
33404;BME280;19751;40.274;18.268;2024-03-07T08:47:33;101182.38;;;13.56;100.00
33404;BME280;19751;40.274;18.268;2024-03-07T08:49:59;101182.22;;;13.64;92.17
33404;BME280;19751;40.274;18.268;2024-03-07T08:52:26;101186.63;;;13.72;89.13
33404;BME280;19751;40.274;18.268;2024-03-07T08:54:52;101185.25;;;13.82;79.43
33404;BME280;19751;40.274;18.268;2024-03-07T08:57:18;101182.38;;;13.90;74.88
33404;BME280;19751;40.274;18.268;2024-03-07T08:59:44;101175.13;;;13.98;69.25
33404;BME280;19751;40.274;18.268;2024-03-07T09:02:10;101185.75;;;13.99;71.68
33404;BME280;19751;40.274;18.268;2024-03-07T09:04:39;101187.25;;;14.08;67.87
33404;BME280;19751;40.274;18.268;2024-03-07T09:07:06;101184.75;;;14.07;65.76
33404;BME280;19751;40.274;18.268;2024-03-07T09:09:32;101177.03;;;14.04;67.50
33404;BME280;19751;40.274;18.268;2024-03-07T09:11:58;101170.38;;;14.06;69.22
33404;BME280;19751;40.274;18.268;2024-03-07T09:14:24;101178.69;;;14.05;68.31
33404;BME280;19751;40.274;18.268;2024-03-07T09:16:50;101181.63;;;14.03;64.96
33404;BME280;19751;40.274;18.268;2024-03-07T09:19:16;101184.53;;;14.08;66.09
33404;BME280;19751;40.274;18.268;2024-03-07T09:21:46;101186.06;;;14.24;64.79
33404;BME280;19751;40.274;18.268;2024-03-07T09:24:12;101183.41;;;14.31;66.71
33404;BME280;19751;40.274;18.268;2024-03-07T09:26:38;101186.72;;;14.33;66.51
33404;BME280;19751;40.274;18.268;2024-03-07T09:29:03;101183.38;;;14.24;68.40
33404;BME280;19751;40.274;18.268;2024-03-07T09:31:32;101184.16;;;14.18;70.99
33404;BME280;19751;40.274;18.268;2024-03-07T09:33:57;101182.50;;;14.17;72.42
33404;BME280;19751;40.274;18.268;2024-03-07T09:36:24;101188.75;;;14.17;73.08
33404;BME280;19751;40.274;18.268;2024-03-07T09:38:50;101190.84;;;14.22;74.77
33404;BME280;19751;40.274;18.268;2024-03-07T09:41:15;101193.38;;;14.30;74.91
33404;BME280;19751;40.274;18.268;2024-03-07T09:43:44;101189.66;;;14.31;71.20
33404;BME280;19751;40.274;18.268;2024-03-07T09:46:12;101193.41;;;14.37;72.41
33404;BME280;19751;40.274;18.268;2024-03-07T09:48:38;101176.31;;;14.43;78.99
33404;BME280;19751;40.274;18.268;2024-03-07T09:51:04;101180.16;;;14.49;77.23
33404;BME280;19751;40.274;18.268;2024-03-07T09:53:33;101186.00;;;14.52;78.30
33404;BME280;19751;40.274;18.268;2024-03-07T09:56:00;101175.50;;;14.42;77.19
33404;BME280;19751;40.274;18.268;2024-03-07T09:58:28;101166.34;;;14.43;82.54
33404;BME280;19751;40.274;18.268;2024-03-07T10:00:57;101171.34;;;14.47;83.62
33404;BME280;19751;40.274;18.268;2024-03-07T10:03:29;101162.44;;;14.53;71.22
33404;BME280;19751;40.274;18.268;2024-03-07T10:05:55;101177.25;;;14.57;69.66
33404;BME280;19751;40.274;18.268;2024-03-07T10:08:22;101165.56;;;14.63;73.12
33404;BME280;19751;40.274;18.268;2024-03-07T10:10:50;101163.28;;;14.66;76.72
33404;BME280;19751;40.274;18.268;2024-03-07T10:13:16;101169.72;;;14.59;76.06
33404;BME280;19751;40.274;18.268;2024-03-07T10:15:43;101165.13;;;14.53;73.40
33404;BME280;19751;40.274;18.268;2024-03-07T10:18:09;101161.16;;;14.49;73.66
33404;BME280;19751;40.274;18.268;2024-03-07T10:20:39;101161.16;;;14.49;77.17
33404;BME280;19751;40.274;18.268;2024-03-07T10:23:05;101168.91;;;14.52;73.97
33404;BME280;19751;40.274;18.268;2024-03-07T10:25:33;101166.94;;;14.39;74.53
33404;BME280;19751;40.274;18.268;2024-03-07T10:27:59;101149.88;;;14.45;84.23
33404;BME280;19751;40.274;18.268;2024-03-07T10:30:26;101157.00;;;14.59;84.94
33404;BME280;19751;40.274;18.268;2024-03-07T10:32:57;101156.81;;;14.67;81.16
33404;BME280;19751;40.274;18.268;2024-03-07T10:35:23;101150.13;;;14.63;79.79
33404;BME280;19751;40.274;18.268;2024-03-07T10:37:53;101147.22;;;14.58;86.17
33404;BME280;19751;40.274;18.268;2024-03-07T10:40:19;101143.84;;;14.50;89.63
33404;BME280;19751;40.274;18.268;2024-03-07T10:42:47;101148.03;;;14.59;90.96
33404;BME280;19751;40.274;18.268;2024-03-07T10:45:19;101133.25;;;14.75;84.92
33404;BME280;19751;40.274;18.268;2024-03-07T10:47:53;101132.22;;;14.82;84.94
33404;BME280;19751;40.274;18.268;2024-03-07T10:53:19;101125.16;;;14.81;81.00
33404;BME280;19751;40.274;18.268;2024-03-07T10:58:58;101122.44;;;14.81;75.20
33404;BME280;19751;40.274;18.268;2024-03-07T11:01:31;101115.75;;;14.90;67.06
33404;BME280;19751;40.274;18.268;2024-03-07T11:03:59;101117.63;;;15.03;56.70
33404;BME280;19751;40.274;18.268;2024-03-07T11:06:25;101102.59;;;15.14;56.69
33404;BME280;19751;40.274;18.268;2024-03-07T11:08:51;101119.28;;;15.24;60.52
33404;BME280;19751;40.274;18.268;2024-03-07T11:11:17;101111.78;;;15.26;57.53
33404;BME280;19751;40.274;18.268;2024-03-07T11:13:43;101113.84;;;15.24;59.65
33404;BME280;19751;40.274;18.268;2024-03-07T11:16:11;101108.84;;;15.14;65.09
33404;BME280;19751;40.274;18.268;2024-03-07T11:18:38;101104.28;;;15.02;71.23
33404;BME280;19751;40.274;18.268;2024-03-07T11:21:05;101103.03;;;14.91;69.17
33404;BME280;19751;40.274;18.268;2024-03-07T11:23:33;101106.38;;;14.73;70.88
33404;BME280;19751;40.274;18.268;2024-03-07T11:28:33;101096.56;;;14.65;73.11
33404;BME280;19751;40.274;18.268;2024-03-07T11:33:37;101079.66;;;14.57;76.99
33404;BME280;19751;40.274;18.268;2024-03-07T11:36:11;101092.38;;;14.63;66.59
33404;BME280;19751;40.274;18.268;2024-03-07T11:38:43;101086.31;;;14.67;61.40
33404;BME280;19751;40.274;18.268;2024-03-07T11:41:09;101087.78;;;14.83;63.57
33404;BME280;19751;40.274;18.268;2024-03-07T11:43:39;101079.66;;;14.83;64.01
33404;BME280;19751;40.274;18.268;2024-03-07T11:46:05;101076.94;;;14.83;65.43
33404;BME280;19751;40.274;18.268;2024-03-07T11:48:39;101079.25;;;14.86;65.98
33404;BME280;19751;40.274;18.268;2024-03-07T11:51:07;101069.00;;;14.95;67.27
33404;BME280;19751;40.274;18.268;2024-03-07T11:53:38;101075.69;;;15.06;66.70
33404;BME280;19751;40.274;18.268;2024-03-07T11:56:04;101071.88;;;15.13;63.14
33404;BME280;19751;40.274;18.268;2024-03-07T11:58:37;101058.75;;;15.17;62.25
33404;BME280;19751;40.274;18.268;2024-03-07T12:01:06;101066.88;;;15.24;57.93
33404;BME280;19751;40.274;18.268;2024-03-07T12:03:36;101059.34;;;15.26;56.41
33404;BME280;19751;40.274;18.268;2024-03-07T12:06:03;101059.97;;;15.21;57.17
33404;BME280;19751;40.274;18.268;2024-03-07T12:08:29;101059.97;;;15.21;56.64
33404;BME280;19751;40.274;18.268;2024-03-07T12:10:55;101065.03;;;15.11;60.19
33404;BME280;19751;40.274;18.268;2024-03-07T12:13:22;101065.47;;;15.01;61.55
33404;BME280;19751;40.274;18.268;2024-03-07T12:15:50;101055.63;;;15.00;60.74
33404;BME280;19751;40.274;18.268;2024-03-07T12:18:21;101053.34;;;15.04;61.20
33404;BME280;19751;40.274;18.268;2024-03-07T12:20:48;101053.56;;;14.96;58.43
33404;BME280;19751;40.274;18.268;2024-03-07T12:23:19;101063.38;;;14.97;60.08
33404;BME280;19751;40.274;18.268;2024-03-07T12:25:47;101055.44;;;14.95;55.33
33404;BME280;19751;40.274;18.268;2024-03-07T12:28:13;101049.59;;;14.98;56.06
33404;BME280;19751;40.274;18.268;2024-03-07T12:30:50;101052.09;;;15.00;59.45
33404;BME280;19751;40.274;18.268;2024-03-07T12:33:17;101045.00;;;14.99;59.73
33404;BME280;19751;40.274;18.268;2024-03-07T12:35:46;101052.50;;;15.10;60.01
33404;BME280;19751;40.274;18.268;2024-03-07T12:38:13;101050.03;;;15.02;54.13
33404;BME280;19751;40.274;18.268;2024-03-07T12:40:44;101039.63;;;14.85;53.47
33404;BME280;19751;40.274;18.268;2024-03-07T12:43:18;101034.59;;;14.76;56.87
33404;BME280;19751;40.274;18.268;2024-03-07T12:45:51;101038.34;;;14.75;57.34